sensor_id;sensor_type;location;lat;lon;timestamp;temperature;humidity
7516;DHT22;3799;47.184;8.538;2023-11-19T00:01:45;7.70;99.90
7516;DHT22;3799;47.184;8.538;2023-11-19T00:04:14;7.80;99.90
7516;DHT22;3799;47.184;8.538;2023-11-19T00:06:41;7.40;99.90
7516;DHT22;3799;47.184;8.538;2023-11-19T00:09:08;7.40;99.90
7516;DHT22;3799;47.184;8.538;2023-11-19T00:11:38;7.60;99.90
7516;DHT22;3799;47.184;8.538;2023-11-19T00:14:05;7.70;99.90
7516;DHT22;3799;47.184;8.538;2023-11-19T00:16:35;7.40;99.90
7516;DHT22;3799;47.184;8.538;2023-11-19T00:19:02;7.60;99.90
7516;DHT22;3799;47.184;8.538;2023-11-19T00:21:32;7.50;99.90
7516;DHT22;3799;47.184;8.538;2023-11-19T00:24:00;7.60;99.90
7516;DHT22;3799;47.184;8.538;2023-11-19T00:26:27;7.60;99.90
7516;DHT22;3799;47.184;8.538;2023-11-19T00:28:54;7.80;99.90
7516;DHT22;3799;47.184;8.538;2023-11-19T00:31:23;7.90;99.90
7516;DHT22;3799;47.184;8.538;2023-11-19T00:33:50;7.90;99.90
7516;DHT22;3799;47.184;8.538;2023-11-19T00:36:17;7.70;99.90
7516;DHT22;3799;47.184;8.538;2023-11-19T00:38:44;7.60;99.90
7516;DHT22;3799;47.184;8.538;2023-11-19T00:41:11;7.70;99.90
7516;DHT22;3799;47.184;8.538;2023-11-19T00:43:39;7.40;99.90
7516;DHT22;3799;47.184;8.538;2023-11-19T00:46:07;7.50;99.90
7516;DHT22;3799;47.184;8.538;2023-11-19T00:48:34;7.50;99.90
7516;DHT22;3799;47.184;8.538;2023-11-19T00:51:02;7.70;99.90
7516;DHT22;3799;47.184;8.538;2023-11-19T00:53:30;7.80;99.90
7516;DHT22;3799;47.184;8.538;2023-11-19T00:55:57;7.60;99.90
7516;DHT22;3799;47.184;8.538;2023-11-19T00:58:25;7.90;99.90
7516;DHT22;3799;47.184;8.538;2023-11-19T01:00:52;8.10;99.90
7516;DHT22;3799;47.184;8.538;2023-11-19T01:03:19;8.00;99.90
7516;DHT22;3799;47.184;8.538;2023-11-19T01:05:47;7.80;99.90
7516;DHT22;3799;47.184;8.538;2023-11-19T01:08:14;7.90;99.90
7516;DHT22;3799;47.184;8.538;2023-11-19T01:10:43;7.70;99.90
7516;DHT22;3799;47.184;8.538;2023-11-19T01:13:10;7.90;99.90
7516;DHT22;3799;47.184;8.538;2023-11-19T01:15:38;7.70;99.90
7516;DHT22;3799;47.184;8.538;2023-11-19T01:18:06;7.90;99.90
7516;DHT22;3799;47.184;8.538;2023-11-19T01:20:34;7.90;99.90
7516;DHT22;3799;47.184;8.538;2023-11-19T01:23:01;8.00;99.90
7516;DHT22;3799;47.184;8.538;2023-11-19T01:25:29;7.90;99.90
7516;DHT22;3799;47.184;8.538;2023-11-19T01:27:57;8.00;99.90
7516;DHT22;3799;47.184;8.538;2023-11-19T01:30:25;8.10;99.90
7516;DHT22;3799;47.184;8.538;2023-11-19T01:32:53;8.00;99.90
7516;DHT22;3799;47.184;8.538;2023-11-19T01:35:20;8.10;99.90
7516;DHT22;3799;47.184;8.538;2023-11-19T01:37:50;8.00;99.90
7516;DHT22;3799;47.184;8.538;2023-11-19T01:40:20;8.00;99.90
7516;DHT22;3799;47.184;8.538;2023-11-19T01:42:47;8.00;99.90
7516;DHT22;3799;47.184;8.538;2023-11-19T01:45:28;8.10;99.90
7516;DHT22;3799;47.184;8.538;2023-11-19T01:48:00;8.10;99.90
7516;DHT22;3799;47.184;8.538;2023-11-19T01:50:28;8.10;99.90
7516;DHT22;3799;47.184;8.538;2023-11-19T01:52:56;8.10;99.90
7516;DHT22;3799;47.184;8.538;2023-11-19T01:55:27;8.00;99.90
7516;DHT22;3799;47.184;8.538;2023-11-19T01:58:00;7.80;99.90
7516;DHT22;3799;47.184;8.538;2023-11-19T02:00:28;8.20;99.90
7516;DHT22;3799;47.184;8.538;2023-11-19T02:02:56;8.00;99.90
7516;DHT22;3799;47.184;8.538;2023-11-19T02:05:24;8.20;99.90
7516;DHT22;3799;47.184;8.538;2023-11-19T02:07:52;8.30;99.90
7516;DHT22;3799;47.184;8.538;2023-11-19T02:10:19;8.10;99.90
7516;DHT22;3799;47.184;8.538;2023-11-19T02:12:46;8.20;99.90
7516;DHT22;3799;47.184;8.538;2023-11-19T02:15:13;8.20;99.90
7516;DHT22;3799;47.184;8.538;2023-11-19T02:17:41;8.00;99.90
7516;DHT22;3799;47.184;8.538;2023-11-19T02:20:08;8.20;99.90
7516;DHT22;3799;47.184;8.538;2023-11-19T02:22:39;8.20;99.90
7516;DHT22;3799;47.184;8.538;2023-11-19T02:25:17;8.20;99.90
7516;DHT22;3799;47.184;8.538;2023-11-19T02:27:59;8.30;99.90
7516;DHT22;3799;47.184;8.538;2023-11-19T02:30:28;8.20;99.90
7516;DHT22;3799;47.184;8.538;2023-11-19T02:32:56;8.30;99.90
7516;DHT22;3799;47.184;8.538;2023-11-19T02:35:25;8.20;99.90
7516;DHT22;3799;47.184;8.538;2023-11-19T02:37:54;8.20;99.90
7516;DHT22;3799;47.184;8.538;2023-11-19T02:40:21;8.20;99.90
7516;DHT22;3799;47.184;8.538;2023-11-19T02:42:52;8.30;99.90
7516;DHT22;3799;47.184;8.538;2023-11-19T02:45:19;8.20;99.90
7516;DHT22;3799;47.184;8.538;2023-11-19T02:47:47;8.20;99.90
7516;DHT22;3799;47.184;8.538;2023-11-19T02:50:14;8.30;99.90
7516;DHT22;3799;47.184;8.538;2023-11-19T02:52:42;8.20;99.90
7516;DHT22;3799;47.184;8.538;2023-11-19T02:55:11;8.20;99.90
7516;DHT22;3799;47.184;8.538;2023-11-19T02:57:42;8.50;99.90
7516;DHT22;3799;47.184;8.538;2023-11-19T03:00:19;8.30;99.90
7516;DHT22;3799;47.184;8.538;2023-11-19T03:02:51;8.40;99.90
7516;DHT22;3799;47.184;8.538;2023-11-19T03:05:27;8.30;99.90
7516;DHT22;3799;47.184;8.538;2023-11-19T03:07:58;8.30;99.90
7516;DHT22;3799;47.184;8.538;2023-11-19T03:10:25;8.50;99.90
7516;DHT22;3799;47.184;8.538;2023-11-19T03:12:52;8.30;99.90
7516;DHT22;3799;47.184;8.538;2023-11-19T03:15:19;8.40;99.90
7516;DHT22;3799;47.184;8.538;2023-11-19T03:17:48;8.20;99.90
7516;DHT22;3799;47.184;8.538;2023-11-19T03:20:15;8.40;99.90
7516;DHT22;3799;47.184;8.538;2023-11-19T03:22:44;8.60;99.90
7516;DHT22;3799;47.184;8.538;2023-11-19T03:25:11;8.30;99.90
7516;DHT22;3799;47.184;8.538;2023-11-19T03:27:39;8.30;99.90
7516;DHT22;3799;47.184;8.538;2023-11-19T03:30:07;8.40;99.90
7516;DHT22;3799;47.184;8.538;2023-11-19T03:32:34;8.30;99.90
7516;DHT22;3799;47.184;8.538;2023-11-19T03:35:03;8.50;99.90
7516;DHT22;3799;47.184;8.538;2023-11-19T03:37:31;8.40;99.90
7516;DHT22;3799;47.184;8.538;2023-11-19T03:39:59;8.30;99.90
7516;DHT22;3799;47.184;8.538;2023-11-19T03:42:29;8.40;99.90
7516;DHT22;3799;47.184;8.538;2023-11-19T03:44:57;8.30;99.90
7516;DHT22;3799;47.184;8.538;2023-11-19T03:47:25;8.30;99.90
7516;DHT22;3799;47.184;8.538;2023-11-19T03:49:52;8.40;99.90
7516;DHT22;3799;47.184;8.538;2023-11-19T03:52:19;8.40;99.90
7516;DHT22;3799;47.184;8.538;2023-11-19T03:54:47;8.40;99.90
7516;DHT22;3799;47.184;8.538;2023-11-19T03:57:14;8.30;99.90
7516;DHT22;3799;47.184;8.538;2023-11-19T03:59:42;8.60;99.90
7516;DHT22;3799;47.184;8.538;2023-11-19T04:02:10;8.30;99.90
7516;DHT22;3799;47.184;8.538;2023-11-19T04:04:38;8.40;99.90
7516;DHT22;3799;47.184;8.538;2023-11-19T04:07:08;8.70;99.90
7516;DHT22;3799;47.184;8.538;2023-11-19T04:09:36;8.50;99.90
7516;DHT22;3799;47.184;8.538;2023-11-19T04:12:04;8.50;99.90
7516;DHT22;3799;47.184;8.538;2023-11-19T04:14:32;8.70;99.90
7516;DHT22;3799;47.184;8.538;2023-11-19T04:16:59;8.70;99.90
7516;DHT22;3799;47.184;8.538;2023-11-19T04:19:26;8.90;99.90
7516;DHT22;3799;47.184;8.538;2023-11-19T04:21:54;8.70;99.90
7516;DHT22;3799;47.184;8.538;2023-11-19T04:24:22;9.00;99.90
7516;DHT22;3799;47.184;8.538;2023-11-19T04:26:49;8.70;99.90
7516;DHT22;3799;47.184;8.538;2023-11-19T04:29:17;9.10;99.90
7516;DHT22;3799;47.184;8.538;2023-11-19T04:31:44;9.00;99.90
7516;DHT22;3799;47.184;8.538;2023-11-19T04:34:32;9.00;99.90
7516;DHT22;3799;47.184;8.538;2023-11-19T04:36:59;9.20;99.90
7516;DHT22;3799;47.184;8.538;2023-11-19T04:39:39;9.10;99.90
7516;DHT22;3799;47.184;8.538;2023-11-19T04:42:06;8.90;99.90
7516;DHT22;3799;47.184;8.538;2023-11-19T04:44:33;9.30;99.90
7516;DHT22;3799;47.184;8.538;2023-11-19T04:47:01;9.20;99.90
7516;DHT22;3799;47.184;8.538;2023-11-19T04:49:28;9.20;99.90
7516;DHT22;3799;47.184;8.538;2023-11-19T04:51:55;9.10;99.90
7516;DHT22;3799;47.184;8.538;2023-11-19T04:54:22;9.30;99.90
7516;DHT22;3799;47.184;8.538;2023-11-19T04:56:50;9.30;99.90
7516;DHT22;3799;47.184;8.538;2023-11-19T04:59:17;9.40;99.90
7516;DHT22;3799;47.184;8.538;2023-11-19T05:01:47;9.50;99.90
7516;DHT22;3799;47.184;8.538;2023-11-19T05:04:15;9.60;99.90
7516;DHT22;3799;47.184;8.538;2023-11-19T05:06:42;9.60;99.90
7516;DHT22;3799;47.184;8.538;2023-11-19T05:09:10;9.50;99.90
7516;DHT22;3799;47.184;8.538;2023-11-19T05:11:39;9.40;99.90
7516;DHT22;3799;47.184;8.538;2023-11-19T05:14:10;9.70;99.90
7516;DHT22;3799;47.184;8.538;2023-11-19T05:16:40;9.70;99.90
7516;DHT22;3799;47.184;8.538;2023-11-19T05:19:07;9.70;99.90
7516;DHT22;3799;47.184;8.538;2023-11-19T05:21:35;9.70;99.90
7516;DHT22;3799;47.184;8.538;2023-11-19T05:24:05;9.90;99.90
7516;DHT22;3799;47.184;8.538;2023-11-19T05:26:33;9.70;99.90
7516;DHT22;3799;47.184;8.538;2023-11-19T05:29:02;9.70;99.90
7516;DHT22;3799;47.184;8.538;2023-11-19T05:31:30;9.80;99.90
7516;DHT22;3799;47.184;8.538;2023-11-19T05:34:01;9.80;99.90
7516;DHT22;3799;47.184;8.538;2023-11-19T05:36:29;9.70;99.90
7516;DHT22;3799;47.184;8.538;2023-11-19T05:38:56;9.90;99.90
7516;DHT22;3799;47.184;8.538;2023-11-19T05:41:23;9.80;99.90
7516;DHT22;3799;47.184;8.538;2023-11-19T05:43:51;9.70;99.90
7516;DHT22;3799;47.184;8.538;2023-11-19T05:46:18;9.70;99.90
7516;DHT22;3799;47.184;8.538;2023-11-19T05:48:47;9.80;99.90
7516;DHT22;3799;47.184;8.538;2023-11-19T05:51:15;9.70;99.90
7516;DHT22;3799;47.184;8.538;2023-11-19T05:53:43;9.50;99.90
7516;DHT22;3799;47.184;8.538;2023-11-19T05:56:13;9.60;99.90
7516;DHT22;3799;47.184;8.538;2023-11-19T05:58:43;9.80;99.90
7516;DHT22;3799;47.184;8.538;2023-11-19T06:01:12;9.80;99.90
7516;DHT22;3799;47.184;8.538;2023-11-19T06:03:42;9.70;99.90
7516;DHT22;3799;47.184;8.538;2023-11-19T06:06:10;9.70;99.90
7516;DHT22;3799;47.184;8.538;2023-11-19T06:08:39;10.00;99.90
7516;DHT22;3799;47.184;8.538;2023-11-19T06:11:15;10.00;99.90
7516;DHT22;3799;47.184;8.538;2023-11-19T06:13:46;10.10;99.90
7516;DHT22;3799;47.184;8.538;2023-11-19T06:16:18;9.80;99.90
7516;DHT22;3799;47.184;8.538;2023-11-19T06:18:46;10.20;99.90
7516;DHT22;3799;47.184;8.538;2023-11-19T06:21:13;10.20;99.90
7516;DHT22;3799;47.184;8.538;2023-11-19T06:23:43;10.20;99.90
7516;DHT22;3799;47.184;8.538;2023-11-19T06:26:10;10.30;99.90
7516;DHT22;3799;47.184;8.538;2023-11-19T06:28:38;10.30;99.90
7516;DHT22;3799;47.184;8.538;2023-11-19T06:31:06;10.30;99.90
7516;DHT22;3799;47.184;8.538;2023-11-19T06:33:33;10.30;99.90
7516;DHT22;3799;47.184;8.538;2023-11-19T06:36:03;10.20;99.90
7516;DHT22;3799;47.184;8.538;2023-11-19T06:38:31;10.30;99.90
7516;DHT22;3799;47.184;8.538;2023-11-19T06:41:01;10.30;99.90
7516;DHT22;3799;47.184;8.538;2023-11-19T06:43:33;10.40;99.90
7516;DHT22;3799;47.184;8.538;2023-11-19T06:46:16;10.20;99.90
7516;DHT22;3799;47.184;8.538;2023-11-19T06:48:46;10.30;99.90
7516;DHT22;3799;47.184;8.538;2023-11-19T06:51:14;10.20;99.90
7516;DHT22;3799;47.184;8.538;2023-11-19T06:53:45;10.30;99.90
7516;DHT22;3799;47.184;8.538;2023-11-19T06:56:23;10.60;99.90
7516;DHT22;3799;47.184;8.538;2023-11-19T06:58:56;10.30;99.90
7516;DHT22;3799;47.184;8.538;2023-11-19T07:01:24;10.20;99.90
7516;DHT22;3799;47.184;8.538;2023-11-19T07:03:57;10.40;99.90
7516;DHT22;3799;47.184;8.538;2023-11-19T07:06:25;10.30;99.90
7516;DHT22;3799;47.184;8.538;2023-11-19T07:08:58;10.50;99.90
7516;DHT22;3799;47.184;8.538;2023-11-19T07:11:28;10.50;99.90
7516;DHT22;3799;47.184;8.538;2023-11-19T07:13:59;10.20;99.90
7516;DHT22;3799;47.184;8.538;2023-11-19T07:16:28;10.30;99.90
7516;DHT22;3799;47.184;8.538;2023-11-19T07:18:55;10.40;99.90
7516;DHT22;3799;47.184;8.538;2023-11-19T07:21:22;10.40;99.90
7516;DHT22;3799;47.184;8.538;2023-11-19T07:23:50;10.50;99.90
7516;DHT22;3799;47.184;8.538;2023-11-19T07:26:18;10.30;99.90
7516;DHT22;3799;47.184;8.538;2023-11-19T07:28:48;10.50;99.90
7516;DHT22;3799;47.184;8.538;2023-11-19T07:31:16;10.60;99.90
7516;DHT22;3799;47.184;8.538;2023-11-19T07:33:46;10.20;99.90
7516;DHT22;3799;47.184;8.538;2023-11-19T07:36:15;10.40;99.90
7516;DHT22;3799;47.184;8.538;2023-11-19T07:38:42;10.30;99.90
7516;DHT22;3799;47.184;8.538;2023-11-19T07:41:09;10.30;99.90
7516;DHT22;3799;47.184;8.538;2023-11-19T07:43:40;10.40;99.90
7516;DHT22;3799;47.184;8.538;2023-11-19T07:46:17;10.50;99.90
7516;DHT22;3799;47.184;8.538;2023-11-19T07:48:46;10.50;99.90
7516;DHT22;3799;47.184;8.538;2023-11-19T07:51:16;10.50;99.90
7516;DHT22;3799;47.184;8.538;2023-11-19T07:53:43;10.50;99.90
7516;DHT22;3799;47.184;8.538;2023-11-19T07:56:11;10.30;99.90
7516;DHT22;3799;47.184;8.538;2023-11-19T07:58:38;10.60;99.90
7516;DHT22;3799;47.184;8.538;2023-11-19T08:01:06;10.70;99.90
7516;DHT22;3799;47.184;8.538;2023-11-19T08:03:33;10.50;99.90
7516;DHT22;3799;47.184;8.538;2023-11-19T08:06:03;10.80;99.90
7516;DHT22;3799;47.184;8.538;2023-11-19T08:08:30;10.70;99.90
7516;DHT22;3799;47.184;8.538;2023-11-19T08:11:00;10.50;99.90
7516;DHT22;3799;47.184;8.538;2023-11-19T08:13:27;10.60;99.90
7516;DHT22;3799;47.184;8.538;2023-11-19T08:15:54;10.80;99.90
7516;DHT22;3799;47.184;8.538;2023-11-19T08:18:22;10.70;99.90
7516;DHT22;3799;47.184;8.538;2023-11-19T08:20:51;10.70;99.90
7516;DHT22;3799;47.184;8.538;2023-11-19T08:23:20;10.60;99.90
7516;DHT22;3799;47.184;8.538;2023-11-19T08:25:47;10.60;99.90
7516;DHT22;3799;47.184;8.538;2023-11-19T08:28:15;10.50;99.90
7516;DHT22;3799;47.184;8.538;2023-11-19T08:30:42;10.80;99.90
7516;DHT22;3799;47.184;8.538;2023-11-19T08:33:11;10.40;99.90
7516;DHT22;3799;47.184;8.538;2023-11-19T08:35:38;10.70;99.90
7516;DHT22;3799;47.184;8.538;2023-11-19T08:38:06;10.60;99.90
7516;DHT22;3799;47.184;8.538;2023-11-19T08:40:33;10.50;99.90
7516;DHT22;3799;47.184;8.538;2023-11-19T08:43:01;10.70;99.90
7516;DHT22;3799;47.184;8.538;2023-11-19T08:45:28;10.70;99.90
7516;DHT22;3799;47.184;8.538;2023-11-19T08:47:55;10.40;99.90
7516;DHT22;3799;47.184;8.538;2023-11-19T08:50:22;10.50;99.90
7516;DHT22;3799;47.184;8.538;2023-11-19T08:52:50;10.30;99.90
7516;DHT22;3799;47.184;8.538;2023-11-19T08:55:18;10.40;99.90
7516;DHT22;3799;47.184;8.538;2023-11-19T08:57:45;10.60;99.90
7516;DHT22;3799;47.184;8.538;2023-11-19T09:00:13;10.70;99.90
7516;DHT22;3799;47.184;8.538;2023-11-19T09:02:43;10.70;99.90
7516;DHT22;3799;47.184;8.538;2023-11-19T09:05:10;10.70;99.90
7516;DHT22;3799;47.184;8.538;2023-11-19T09:07:39;10.80;99.90
7516;DHT22;3799;47.184;8.538;2023-11-19T09:10:07;10.80;99.90
7516;DHT22;3799;47.184;8.538;2023-11-19T09:12:35;10.70;99.90
7516;DHT22;3799;47.184;8.538;2023-11-19T09:15:03;10.80;99.90
7516;DHT22;3799;47.184;8.538;2023-11-19T09:17:30;10.70;99.90
7516;DHT22;3799;47.184;8.538;2023-11-19T09:19:58;10.90;99.90
7516;DHT22;3799;47.184;8.538;2023-11-19T09:22:25;10.80;99.90
7516;DHT22;3799;47.184;8.538;2023-11-19T09:24:52;10.70;99.90
7516;DHT22;3799;47.184;8.538;2023-11-19T09:27:19;10.90;99.90
7516;DHT22;3799;47.184;8.538;2023-11-19T09:29:48;10.80;99.90
7516;DHT22;3799;47.184;8.538;2023-11-19T09:32:16;10.90;99.90
7516;DHT22;3799;47.184;8.538;2023-11-19T09:34:44;10.80;99.90
7516;DHT22;3799;47.184;8.538;2023-11-19T09:37:11;10.70;99.90
7516;DHT22;3799;47.184;8.538;2023-11-19T09:39:41;10.90;99.90
7516;DHT22;3799;47.184;8.538;2023-11-19T09:42:12;11.00;99.90
7516;DHT22;3799;47.184;8.538;2023-11-19T09:44:40;11.10;99.90
7516;DHT22;3799;47.184;8.538;2023-11-19T09:47:08;11.20;99.90
7516;DHT22;3799;47.184;8.538;2023-11-19T09:49:37;11.00;99.90
7516;DHT22;3799;47.184;8.538;2023-11-19T09:52:06;11.00;99.90
7516;DHT22;3799;47.184;8.538;2023-11-19T09:54:33;11.10;99.90
7516;DHT22;3799;47.184;8.538;2023-11-19T09:57:02;11.40;99.90
7516;DHT22;3799;47.184;8.538;2023-11-19T09:59:33;11.20;99.90
7516;DHT22;3799;47.184;8.538;2023-11-19T10:02:00;11.00;99.90
7516;DHT22;3799;47.184;8.538;2023-11-19T10:04:30;11.40;99.90
7516;DHT22;3799;47.184;8.538;2023-11-19T10:06:59;11.40;99.90
7516;DHT22;3799;47.184;8.538;2023-11-19T10:09:26;11.40;99.90
7516;DHT22;3799;47.184;8.538;2023-11-19T10:11:54;11.30;99.90
7516;DHT22;3799;47.184;8.538;2023-11-19T10:14:23;11.00;99.90
7516;DHT22;3799;47.184;8.538;2023-11-19T10:16:51;11.20;99.90
7516;DHT22;3799;47.184;8.538;2023-11-19T10:19:21;11.20;99.90
7516;DHT22;3799;47.184;8.538;2023-11-19T10:21:49;11.10;99.90
7516;DHT22;3799;47.184;8.538;2023-11-19T10:24:16;11.40;99.90
7516;DHT22;3799;47.184;8.538;2023-11-19T10:26:46;11.10;99.90
7516;DHT22;3799;47.184;8.538;2023-11-19T10:29:13;11.20;99.90
7516;DHT22;3799;47.184;8.538;2023-11-19T10:31:56;11.20;99.90
7516;DHT22;3799;47.184;8.538;2023-11-19T10:34:43;11.40;99.90
7516;DHT22;3799;47.184;8.538;2023-11-19T10:37:27;11.10;99.90
7516;DHT22;3799;47.184;8.538;2023-11-19T10:39:56;11.30;99.90
7516;DHT22;3799;47.184;8.538;2023-11-19T10:42:24;11.10;99.90
7516;DHT22;3799;47.184;8.538;2023-11-19T10:44:51;11.40;99.90
7516;DHT22;3799;47.184;8.538;2023-11-19T10:47:19;11.20;99.90
7516;DHT22;3799;47.184;8.538;2023-11-19T10:50:05;11.40;99.90
7516;DHT22;3799;47.184;8.538;2023-11-19T10:52:33;11.40;99.90
7516;DHT22;3799;47.184;8.538;2023-11-19T10:55:02;11.30;99.90
7516;DHT22;3799;47.184;8.538;2023-11-19T10:57:35;11.50;99.90
7516;DHT22;3799;47.184;8.538;2023-11-19T11:00:04;11.60;99.90
7516;DHT22;3799;47.184;8.538;2023-11-19T11:02:41;11.30;99.90
7516;DHT22;3799;47.184;8.538;2023-11-19T11:05:14;11.70;99.90
7516;DHT22;3799;47.184;8.538;2023-11-19T11:07:43;11.70;99.90
7516;DHT22;3799;47.184;8.538;2023-11-19T11:10:11;11.80;99.90
7516;DHT22;3799;47.184;8.538;2023-11-19T11:12:41;11.90;99.90
7516;DHT22;3799;47.184;8.538;2023-11-19T11:15:11;11.70;99.90
7516;DHT22;3799;47.184;8.538;2023-11-19T11:17:41;11.90;99.90
7516;DHT22;3799;47.184;8.538;2023-11-19T11:20:11;12.00;99.90
7516;DHT22;3799;47.184;8.538;2023-11-19T11:34:35;12.40;99.90
7516;DHT22;3799;47.184;8.538;2023-11-19T11:37:38;12.30;99.90
7516;DHT22;3799;47.184;8.538;2023-11-19T11:40:06;12.50;99.90
7516;DHT22;3799;47.184;8.538;2023-11-19T11:42:37;12.40;99.90
7516;DHT22;3799;47.184;8.538;2023-11-19T11:45:12;12.30;99.90
7516;DHT22;3799;47.184;8.538;2023-11-19T11:57:53;12.40;99.90
7516;DHT22;3799;47.184;8.538;2023-11-19T12:03:01;12.60;99.90
7516;DHT22;3799;47.184;8.538;2023-11-19T12:05:29;12.60;99.90
7516;DHT22;3799;47.184;8.538;2023-11-19T12:08:03;12.50;99.90
7516;DHT22;3799;47.184;8.538;2023-11-19T12:10:37;12.60;99.90
7516;DHT22;3799;47.184;8.538;2023-11-19T12:13:06;12.60;99.90
7516;DHT22;3799;47.184;8.538;2023-11-19T12:18:26;12.60;99.90
7516;DHT22;3799;47.184;8.538;2023-11-19T12:20:55;12.50;99.90
7516;DHT22;3799;47.184;8.538;2023-11-19T12:23:23;12.70;99.90
7516;DHT22;3799;47.184;8.538;2023-11-19T12:25:50;12.70;99.90
7516;DHT22;3799;47.184;8.538;2023-11-19T12:28:18;12.80;99.90
7516;DHT22;3799;47.184;8.538;2023-11-19T12:30:45;12.60;99.90
7516;DHT22;3799;47.184;8.538;2023-11-19T12:33:14;12.90;99.90
7516;DHT22;3799;47.184;8.538;2023-11-19T12:35:46;12.90;99.90
7516;DHT22;3799;47.184;8.538;2023-11-19T12:38:24;12.50;99.90
7516;DHT22;3799;47.184;8.538;2023-11-19T12:43:31;12.50;99.90
7516;DHT22;3799;47.184;8.538;2023-11-19T12:46:23;12.70;99.90
7516;DHT22;3799;47.184;8.538;2023-11-19T12:48:51;12.70;99.90
7516;DHT22;3799;47.184;8.538;2023-11-19T12:51:19;12.80;99.90
7516;DHT22;3799;47.184;8.538;2023-11-19T12:53:51;12.80;99.90
7516;DHT22;3799;47.184;8.538;2023-11-19T12:56:22;13.00;99.90
7516;DHT22;3799;47.184;8.538;2023-11-19T12:58:50;13.20;99.90
7516;DHT22;3799;47.184;8.538;2023-11-19T13:01:18;12.90;99.90
7516;DHT22;3799;47.184;8.538;2023-11-19T13:03:47;13.30;99.90
7516;DHT22;3799;47.184;8.538;2023-11-19T13:06:16;13.00;99.90
7516;DHT22;3799;47.184;8.538;2023-11-19T13:08:45;13.20;99.90
7516;DHT22;3799;47.184;8.538;2023-11-19T13:11:13;13.40;99.90
7516;DHT22;3799;47.184;8.538;2023-11-19T13:14:03;13.50;99.90
7516;DHT22;3799;47.184;8.538;2023-11-19T13:16:38;13.50;99.90
7516;DHT22;3799;47.184;8.538;2023-11-19T13:19:06;13.50;99.90
7516;DHT22;3799;47.184;8.538;2023-11-19T13:21:33;13.50;99.90
7516;DHT22;3799;47.184;8.538;2023-11-19T13:24:00;13.90;99.90
7516;DHT22;3799;47.184;8.538;2023-11-19T13:26:28;13.90;99.90
7516;DHT22;3799;47.184;8.538;2023-11-19T13:28:55;13.70;99.90
7516;DHT22;3799;47.184;8.538;2023-11-19T13:31:22;14.10;99.90
7516;DHT22;3799;47.184;8.538;2023-11-19T13:33:49;13.90;99.90
7516;DHT22;3799;47.184;8.538;2023-11-19T13:36:17;14.20;99.90
7516;DHT22;3799;47.184;8.538;2023-11-19T13:38:44;14.20;99.90
7516;DHT22;3799;47.184;8.538;2023-11-19T13:41:12;14.30;99.90
7516;DHT22;3799;47.184;8.538;2023-11-19T13:43:40;14.10;99.90
7516;DHT22;3799;47.184;8.538;2023-11-19T13:46:08;14.30;99.90
7516;DHT22;3799;47.184;8.538;2023-11-19T13:48:38;14.20;99.90
7516;DHT22;3799;47.184;8.538;2023-11-19T13:51:05;14.10;99.90
7516;DHT22;3799;47.184;8.538;2023-11-19T13:53:33;14.00;99.90
7516;DHT22;3799;47.184;8.538;2023-11-19T13:56:03;13.70;99.90
7516;DHT22;3799;47.184;8.538;2023-11-19T13:58:31;13.90;99.90
7516;DHT22;3799;47.184;8.538;2023-11-19T14:00:58;13.80;99.90
7516;DHT22;3799;47.184;8.538;2023-11-19T14:03:25;13.70;99.90
7516;DHT22;3799;47.184;8.538;2023-11-19T14:05:53;13.50;99.90
7516;DHT22;3799;47.184;8.538;2023-11-19T14:08:22;13.40;99.90
7516;DHT22;3799;47.184;8.538;2023-11-19T14:10:52;13.50;99.90
7516;DHT22;3799;47.184;8.538;2023-11-19T14:13:23;13.50;99.90
7516;DHT22;3799;47.184;8.538;2023-11-19T14:15:51;13.50;99.90
7516;DHT22;3799;47.184;8.538;2023-11-19T14:18:18;13.30;99.90
7516;DHT22;3799;47.184;8.538;2023-11-19T14:20:46;13.40;99.90
7516;DHT22;3799;47.184;8.538;2023-11-19T14:23:13;13.60;99.90
7516;DHT22;3799;47.184;8.538;2023-11-19T14:25:40;13.30;99.90
7516;DHT22;3799;47.184;8.538;2023-11-19T14:28:07;13.60;99.90
7516;DHT22;3799;47.184;8.538;2023-11-19T14:30:34;13.50;99.90
7516;DHT22;3799;47.184;8.538;2023-11-19T14:33:02;13.60;99.90
7516;DHT22;3799;47.184;8.538;2023-11-19T14:35:30;13.60;99.90
7516;DHT22;3799;47.184;8.538;2023-11-19T14:38:00;13.60;99.90
7516;DHT22;3799;47.184;8.538;2023-11-19T14:40:27;13.60;99.90
7516;DHT22;3799;47.184;8.538;2023-11-19T14:42:58;13.60;99.90
7516;DHT22;3799;47.184;8.538;2023-11-19T14:45:27;13.40;99.90
7516;DHT22;3799;47.184;8.538;2023-11-19T14:47:56;13.60;99.90
7516;DHT22;3799;47.184;8.538;2023-11-19T14:50:24;13.50;99.90
7516;DHT22;3799;47.184;8.538;2023-11-19T14:52:51;13.10;99.90
7516;DHT22;3799;47.184;8.538;2023-11-19T14:55:19;13.50;99.90
7516;DHT22;3799;47.184;8.538;2023-11-19T14:57:46;13.40;99.90
7516;DHT22;3799;47.184;8.538;2023-11-19T15:00:27;13.10;99.90
7516;DHT22;3799;47.184;8.538;2023-11-19T15:02:54;13.10;99.90
7516;DHT22;3799;47.184;8.538;2023-11-19T15:05:22;13.00;99.90
7516;DHT22;3799;47.184;8.538;2023-11-19T15:07:49;13.10;99.90
7516;DHT22;3799;47.184;8.538;2023-11-19T15:10:16;12.90;99.90
7516;DHT22;3799;47.184;8.538;2023-11-19T15:12:44;13.00;99.90
7516;DHT22;3799;47.184;8.538;2023-11-19T15:15:12;12.80;99.90
7516;DHT22;3799;47.184;8.538;2023-11-19T15:18:02;13.20;99.90
7516;DHT22;3799;47.184;8.538;2023-11-19T15:20:29;13.10;99.90
7516;DHT22;3799;47.184;8.538;2023-11-19T15:22:58;12.90;99.90
7516;DHT22;3799;47.184;8.538;2023-11-19T15:25:25;12.90;99.90
7516;DHT22;3799;47.184;8.538;2023-11-19T15:27:52;13.00;99.90
7516;DHT22;3799;47.184;8.538;2023-11-19T15:30:19;13.00;99.90
7516;DHT22;3799;47.184;8.538;2023-11-19T15:32:46;12.90;99.90
7516;DHT22;3799;47.184;8.538;2023-11-19T15:35:16;13.00;99.90
7516;DHT22;3799;47.184;8.538;2023-11-19T15:37:43;13.00;99.90
7516;DHT22;3799;47.184;8.538;2023-11-19T15:40:12;13.20;99.90
7516;DHT22;3799;47.184;8.538;2023-11-19T15:42:42;13.10;99.90
7516;DHT22;3799;47.184;8.538;2023-11-19T15:45:14;12.90;99.90
7516;DHT22;3799;47.184;8.538;2023-11-19T15:47:43;13.00;99.90
7516;DHT22;3799;47.184;8.538;2023-11-19T15:50:11;12.80;99.90
7516;DHT22;3799;47.184;8.538;2023-11-19T15:52:38;13.00;99.90
7516;DHT22;3799;47.184;8.538;2023-11-19T15:55:07;12.80;99.90
7516;DHT22;3799;47.184;8.538;2023-11-19T15:57:34;13.10;99.90
7516;DHT22;3799;47.184;8.538;2023-11-19T16:00:02;12.80;99.90
7516;DHT22;3799;47.184;8.538;2023-11-19T16:02:31;13.00;99.90
7516;DHT22;3799;47.184;8.538;2023-11-19T16:04:58;12.90;99.90
7516;DHT22;3799;47.184;8.538;2023-11-19T16:07:25;12.80;99.90
7516;DHT22;3799;47.184;8.538;2023-11-19T16:09:52;12.80;99.90
7516;DHT22;3799;47.184;8.538;2023-11-19T16:12:21;13.10;99.90
7516;DHT22;3799;47.184;8.538;2023-11-19T16:14:49;12.80;99.90
7516;DHT22;3799;47.184;8.538;2023-11-19T16:17:16;12.90;99.90
7516;DHT22;3799;47.184;8.538;2023-11-19T16:19:44;12.80;99.90
7516;DHT22;3799;47.184;8.538;2023-11-19T16:22:11;12.90;99.90
7516;DHT22;3799;47.184;8.538;2023-11-19T16:24:39;12.70;99.90
7516;DHT22;3799;47.184;8.538;2023-11-19T16:27:06;12.80;99.90
7516;DHT22;3799;47.184;8.538;2023-11-19T16:29:54;12.80;99.90
7516;DHT22;3799;47.184;8.538;2023-11-19T16:32:21;12.80;99.90
7516;DHT22;3799;47.184;8.538;2023-11-19T16:34:53;12.70;99.90
7516;DHT22;3799;47.184;8.538;2023-11-19T16:37:20;12.70;99.90
7516;DHT22;3799;47.184;8.538;2023-11-19T16:39:47;12.70;99.90
7516;DHT22;3799;47.184;8.538;2023-11-19T16:42:15;12.50;99.90
7516;DHT22;3799;47.184;8.538;2023-11-19T16:44:44;12.40;99.90
7516;DHT22;3799;47.184;8.538;2023-11-19T16:47:12;12.60;99.90
7516;DHT22;3799;47.184;8.538;2023-11-19T16:49:39;12.70;99.90